sensor_id;sensor_type;location;lat;lon;timestamp;P1;durP1;ratioP1;P2;durP2;ratioP2
39924;SDS011;25592;49.986;11.618;2024-01-11T00:02:31;129.10;;;56.63;;
39924;SDS011;25592;49.986;11.618;2024-01-11T00:05:16;127.50;;;53.97;;
39924;SDS011;25592;49.986;11.618;2024-01-11T00:08:02;127.90;;;56.53;;
39924;SDS011;25592;49.986;11.618;2024-01-11T00:10:48;127.30;;;54.43;;
39924;SDS011;25592;49.986;11.618;2024-01-11T00:13:34;126.93;;;53.63;;
39924;SDS011;25592;49.986;11.618;2024-01-11T00:16:19;127.93;;;54.63;;
39924;SDS011;25592;49.986;11.618;2024-01-11T00:19:04;129.30;;;56.97;;
39924;SDS011;25592;49.986;11.618;2024-01-11T00:21:50;129.17;;;55.23;;
39924;SDS011;25592;49.986;11.618;2024-01-11T00:24:35;127.93;;;54.90;;
39924;SDS011;25592;49.986;11.618;2024-01-11T00:27:23;128.03;;;53.70;;
39924;SDS011;25592;49.986;11.618;2024-01-11T00:30:09;128.60;;;54.73;;
39924;SDS011;25592;49.986;11.618;2024-01-11T00:32:55;127.07;;;53.93;;
39924;SDS011;25592;49.986;11.618;2024-01-11T00:35:40;128.60;;;55.40;;
39924;SDS011;25592;49.986;11.618;2024-01-11T00:38:25;127.77;;;54.27;;
39924;SDS011;25592;49.986;11.618;2024-01-11T00:41:11;128.77;;;57.27;;
39924;SDS011;25592;49.986;11.618;2024-01-11T00:43:56;127.43;;;55.17;;
39924;SDS011;25592;49.986;11.618;2024-01-11T00:46:42;127.33;;;53.97;;
39924;SDS011;25592;49.986;11.618;2024-01-11T00:49:27;126.83;;;54.27;;
39924;SDS011;25592;49.986;11.618;2024-01-11T00:52:13;128.03;;;55.27;;
39924;SDS011;25592;49.986;11.618;2024-01-11T00:54:58;128.17;;;55.87;;
39924;SDS011;25592;49.986;11.618;2024-01-11T00:57:44;126.97;;;53.60;;
39924;SDS011;25592;49.986;11.618;2024-01-11T01:00:29;126.60;;;53.63;;
39924;SDS011;25592;49.986;11.618;2024-01-11T01:03:15;126.43;;;53.00;;
39924;SDS011;25592;49.986;11.618;2024-01-11T01:06:01;127.73;;;55.37;;
39924;SDS011;25592;49.986;11.618;2024-01-11T01:08:47;126.50;;;54.87;;
39924;SDS011;25592;49.986;11.618;2024-01-11T01:11:33;127.10;;;54.77;;
39924;SDS011;25592;49.986;11.618;2024-01-11T01:14:19;127.73;;;55.03;;
39924;SDS011;25592;49.986;11.618;2024-01-11T01:17:05;128.30;;;55.53;;
39924;SDS011;25592;49.986;11.618;2024-01-11T01:19:51;126.27;;;52.70;;
39924;SDS011;25592;49.986;11.618;2024-01-11T01:22:37;127.17;;;53.83;;
39924;SDS011;25592;49.986;11.618;2024-01-11T01:25:23;126.43;;;53.47;;
39924;SDS011;25592;49.986;11.618;2024-01-11T01:28:09;127.20;;;55.33;;
39924;SDS011;25592;49.986;11.618;2024-01-11T01:30:55;126.63;;;53.53;;
39924;SDS011;25592;49.986;11.618;2024-01-11T01:33:40;127.97;;;54.87;;
39924;SDS011;25592;49.986;11.618;2024-01-11T01:36:26;128.27;;;54.83;;
39924;SDS011;25592;49.986;11.618;2024-01-11T01:39:12;127.30;;;53.83;;
39924;SDS011;25592;49.986;11.618;2024-01-11T01:41:58;128.20;;;54.17;;
39924;SDS011;25592;49.986;11.618;2024-01-11T01:44:44;130.67;;;54.23;;
39924;SDS011;25592;49.986;11.618;2024-01-11T01:47:30;128.47;;;54.80;;
39924;SDS011;25592;49.986;11.618;2024-01-11T01:50:15;126.97;;;53.37;;
39924;SDS011;25592;49.986;11.618;2024-01-11T01:53:03;127.90;;;54.53;;
39924;SDS011;25592;49.986;11.618;2024-01-11T01:55:49;127.57;;;53.90;;
39924;SDS011;25592;49.986;11.618;2024-01-11T01:58:36;127.27;;;53.67;;
39924;SDS011;25592;49.986;11.618;2024-01-11T02:01:22;129.00;;;57.17;;
39924;SDS011;25592;49.986;11.618;2024-01-11T02:04:08;128.03;;;54.93;;
39924;SDS011;25592;49.986;11.618;2024-01-11T02:06:55;128.37;;;54.03;;
39924;SDS011;25592;49.986;11.618;2024-01-11T02:09:41;128.63;;;54.73;;
39924;SDS011;25592;49.986;11.618;2024-01-11T02:12:28;129.20;;;55.20;;
39924;SDS011;25592;49.986;11.618;2024-01-11T02:15:14;129.67;;;56.53;;
39924;SDS011;25592;49.986;11.618;2024-01-11T02:18:00;129.03;;;55.80;;
39924;SDS011;25592;49.986;11.618;2024-01-11T02:20:46;128.27;;;54.67;;
39924;SDS011;25592;49.986;11.618;2024-01-11T02:23:32;129.40;;;55.77;;
39924;SDS011;25592;49.986;11.618;2024-01-11T02:26:18;128.50;;;54.43;;
39924;SDS011;25592;49.986;11.618;2024-01-11T02:29:06;128.67;;;55.43;;
39924;SDS011;25592;49.986;11.618;2024-01-11T02:31:53;129.17;;;55.37;;
39924;SDS011;25592;49.986;11.618;2024-01-11T02:34:39;128.40;;;55.27;;
39924;SDS011;25592;49.986;11.618;2024-01-11T02:37:25;128.27;;;53.80;;
39924;SDS011;25592;49.986;11.618;2024-01-11T02:40:11;129.10;;;55.00;;
39924;SDS011;25592;49.986;11.618;2024-01-11T02:42:57;128.77;;;54.83;;
39924;SDS011;25592;49.986;11.618;2024-01-11T02:45:43;128.43;;;54.67;;
39924;SDS011;25592;49.986;11.618;2024-01-11T02:48:29;128.03;;;53.73;;
39924;SDS011;25592;49.986;11.618;2024-01-11T02:51:15;131.00;;;60.53;;
39924;SDS011;25592;49.986;11.618;2024-01-11T02:54:01;128.93;;;55.47;;
39924;SDS011;25592;49.986;11.618;2024-01-11T02:56:47;129.33;;;55.07;;
39924;SDS011;25592;49.986;11.618;2024-01-11T02:59:33;131.60;;;56.60;;
39924;SDS011;25592;49.986;11.618;2024-01-11T03:02:18;130.13;;;54.17;;
39924;SDS011;25592;49.986;11.618;2024-01-11T03:05:04;129.10;;;54.37;;
39924;SDS011;25592;49.986;11.618;2024-01-11T03:07:50;129.60;;;54.13;;
39924;SDS011;25592;49.986;11.618;2024-01-11T03:10:39;128.53;;;53.67;;
39924;SDS011;25592;49.986;11.618;2024-01-11T03:13:25;128.60;;;53.63;;
39924;SDS011;25592;49.986;11.618;2024-01-11T03:16:11;128.87;;;55.53;;
39924;SDS011;25592;49.986;11.618;2024-01-11T03:18:56;128.23;;;54.37;;
39924;SDS011;25592;49.986;11.618;2024-01-11T03:21:46;128.67;;;55.00;;
39924;SDS011;25592;49.986;11.618;2024-01-11T03:24:32;128.83;;;54.23;;
39924;SDS011;25592;49.986;11.618;2024-01-11T03:27:18;129.07;;;54.97;;
39924;SDS011;25592;49.986;11.618;2024-01-11T03:30:03;128.23;;;53.57;;
39924;SDS011;25592;49.986;11.618;2024-01-11T03:32:49;129.97;;;55.43;;
39924;SDS011;25592;49.986;11.618;2024-01-11T03:35:35;130.50;;;56.37;;
39924;SDS011;25592;49.986;11.618;2024-01-11T03:38:23;129.97;;;53.93;;
39924;SDS011;25592;49.986;11.618;2024-01-11T03:41:09;129.73;;;55.00;;
39924;SDS011;25592;49.986;11.618;2024-01-11T03:43:56;133.50;;;55.73;;
39924;SDS011;25592;49.986;11.618;2024-01-11T03:46:41;130.33;;;53.83;;
39924;SDS011;25592;49.986;11.618;2024-01-11T03:49:27;130.63;;;54.23;;
39924;SDS011;25592;49.986;11.618;2024-01-11T03:52:12;130.43;;;55.00;;
39924;SDS011;25592;49.986;11.618;2024-01-11T03:54:58;129.00;;;54.40;;
39924;SDS011;25592;49.986;11.618;2024-01-11T03:57:43;129.87;;;55.20;;
39924;SDS011;25592;49.986;11.618;2024-01-11T04:00:29;129.17;;;53.97;;
39924;SDS011;25592;49.986;11.618;2024-01-11T04:03:15;130.17;;;54.83;;
39924;SDS011;25592;49.986;11.618;2024-01-11T04:06:01;130.07;;;53.60;;
39924;SDS011;25592;49.986;11.618;2024-01-11T04:08:47;130.93;;;54.87;;
39924;SDS011;25592;49.986;11.618;2024-01-11T04:11:33;130.40;;;54.10;;
39924;SDS011;25592;49.986;11.618;2024-01-11T04:14:19;129.43;;;54.53;;
39924;SDS011;25592;49.986;11.618;2024-01-11T04:17:04;130.10;;;54.03;;
39924;SDS011;25592;49.986;11.618;2024-01-11T04:19:50;130.77;;;54.63;;
39924;SDS011;25592;49.986;11.618;2024-01-11T04:22:35;131.47;;;55.07;;
39924;SDS011;25592;49.986;11.618;2024-01-11T04:25:21;130.27;;;54.20;;
39924;SDS011;25592;49.986;11.618;2024-01-11T04:28:07;131.43;;;55.00;;
39924;SDS011;25592;49.986;11.618;2024-01-11T04:30:52;131.20;;;54.57;;
39924;SDS011;25592;49.986;11.618;2024-01-11T04:33:41;130.37;;;54.33;;
39924;SDS011;25592;49.986;11.618;2024-01-11T04:36:26;129.03;;;52.63;;
39924;SDS011;25592;49.986;11.618;2024-01-11T04:39:12;130.07;;;53.80;;
39924;SDS011;25592;49.986;11.618;2024-01-11T04:41:57;128.57;;;53.87;;
39924;SDS011;25592;49.986;11.618;2024-01-11T04:44:43;129.77;;;55.63;;
39924;SDS011;25592;49.986;11.618;2024-01-11T04:47:29;131.00;;;55.97;;
39924;SDS011;25592;49.986;11.618;2024-01-11T04:50:14;128.17;;;53.57;;
39924;SDS011;25592;49.986;11.618;2024-01-11T04:53:01;128.63;;;53.60;;
39924;SDS011;25592;49.986;11.618;2024-01-11T04:55:47;129.23;;;55.03;;
39924;SDS011;25592;49.986;11.618;2024-01-11T04:58:33;128.63;;;53.33;;
39924;SDS011;25592;49.986;11.618;2024-01-11T05:01:19;130.23;;;57.83;;
39924;SDS011;25592;49.986;11.618;2024-01-11T05:04:06;130.37;;;55.83;;
39924;SDS011;25592;49.986;11.618;2024-01-11T05:06:52;128.27;;;53.70;;
39924;SDS011;25592;49.986;11.618;2024-01-11T05:09:37;131.70;;;58.03;;
39924;SDS011;25592;49.986;11.618;2024-01-11T05:12:23;128.10;;;53.60;;
39924;SDS011;25592;49.986;11.618;2024-01-11T05:15:08;129.67;;;55.50;;
39924;SDS011;25592;49.986;11.618;2024-01-11T05:17:56;128.70;;;54.30;;
39924;SDS011;25592;49.986;11.618;2024-01-11T05:20:47;129.57;;;55.20;;
39924;SDS011;25592;49.986;11.618;2024-01-11T05:23:34;130.23;;;54.53;;
39924;SDS011;25592;49.986;11.618;2024-01-11T05:26:21;130.67;;;55.60;;
39924;SDS011;25592;49.986;11.618;2024-01-11T05:29:07;129.83;;;54.97;;
39924;SDS011;25592;49.986;11.618;2024-01-11T05:31:52;129.17;;;54.67;;
39924;SDS011;25592;49.986;11.618;2024-01-11T05:34:38;130.90;;;55.83;;
39924;SDS011;25592;49.986;11.618;2024-01-11T05:37:24;129.43;;;54.13;;
39924;SDS011;25592;49.986;11.618;2024-01-11T05:40:09;129.83;;;54.90;;
39924;SDS011;25592;49.986;11.618;2024-01-11T05:42:55;129.53;;;53.27;;
39924;SDS011;25592;49.986;11.618;2024-01-11T05:45:41;138.90;;;56.27;;
39924;SDS011;25592;49.986;11.618;2024-01-11T05:48:28;131.40;;;54.60;;
39924;SDS011;25592;49.986;11.618;2024-01-11T05:51:14;132.87;;;57.77;;
39924;SDS011;25592;49.986;11.618;2024-01-11T05:53:59;130.83;;;54.77;;
39924;SDS011;25592;49.986;11.618;2024-01-11T05:56:45;131.53;;;54.97;;
39924;SDS011;25592;49.986;11.618;2024-01-11T05:59:30;130.70;;;55.30;;
39924;SDS011;25592;49.986;11.618;2024-01-11T06:02:16;129.90;;;54.30;;
39924;SDS011;25592;49.986;11.618;2024-01-11T06:05:01;130.87;;;54.97;;
39924;SDS011;25592;49.986;11.618;2024-01-11T06:07:47;130.37;;;54.97;;
39924;SDS011;25592;49.986;11.618;2024-01-11T06:10:33;129.23;;;53.60;;
39924;SDS011;25592;49.986;11.618;2024-01-11T06:13:18;139.37;;;62.37;;
39924;SDS011;25592;49.986;11.618;2024-01-11T06:16:04;128.97;;;54.20;;
39924;SDS011;25592;49.986;11.618;2024-01-11T06:18:50;130.03;;;54.17;;
39924;SDS011;25592;49.986;11.618;2024-01-11T06:21:35;129.93;;;54.17;;
39924;SDS011;25592;49.986;11.618;2024-01-11T06:24:21;131.33;;;56.50;;
39924;SDS011;25592;49.986;11.618;2024-01-11T06:27:06;130.70;;;55.63;;
39924;SDS011;25592;49.986;11.618;2024-01-11T06:29:52;132.27;;;57.20;;
39924;SDS011;25592;49.986;11.618;2024-01-11T06:32:37;131.70;;;56.40;;
39924;SDS011;25592;49.986;11.618;2024-01-11T06:35:23;131.57;;;56.10;;
39924;SDS011;25592;49.986;11.618;2024-01-11T06:38:08;132.67;;;57.20;;
39924;SDS011;25592;49.986;11.618;2024-01-11T06:40:54;131.43;;;55.87;;
39924;SDS011;25592;49.986;11.618;2024-01-11T06:43:39;130.13;;;54.17;;
39924;SDS011;25592;49.986;11.618;2024-01-11T06:46:25;132.13;;;54.33;;
39924;SDS011;25592;49.986;11.618;2024-01-11T06:49:10;130.73;;;55.47;;
39924;SDS011;25592;49.986;11.618;2024-01-11T06:51:56;130.73;;;55.90;;
39924;SDS011;25592;49.986;11.618;2024-01-11T06:54:42;129.67;;;54.10;;
39924;SDS011;25592;49.986;11.618;2024-01-11T06:57:27;130.50;;;54.50;;
39924;SDS011;25592;49.986;11.618;2024-01-11T07:00:13;130.20;;;53.60;;
39924;SDS011;25592;49.986;11.618;2024-01-11T07:02:59;131.00;;;54.77;;
39924;SDS011;25592;49.986;11.618;2024-01-11T07:05:44;129.67;;;53.80;;
39924;SDS011;25592;49.986;11.618;2024-01-11T07:08:30;130.70;;;55.07;;
39924;SDS011;25592;49.986;11.618;2024-01-11T07:11:15;132.23;;;58.50;;
39924;SDS011;25592;49.986;11.618;2024-01-11T07:14:01;129.70;;;54.63;;
39924;SDS011;25592;49.986;11.618;2024-01-11T07:16:47;130.67;;;55.40;;
39924;SDS011;25592;49.986;11.618;2024-01-11T07:19:32;129.80;;;54.83;;
39924;SDS011;25592;49.986;11.618;2024-01-11T07:22:18;130.50;;;55.67;;
39924;SDS011;25592;49.986;11.618;2024-01-11T07:25:03;130.40;;;54.93;;
39924;SDS011;25592;49.986;11.618;2024-01-11T07:27:49;131.10;;;56.10;;
39924;SDS011;25592;49.986;11.618;2024-01-11T07:30:34;129.97;;;55.20;;
39924;SDS011;25592;49.986;11.618;2024-01-11T07:33:20;130.70;;;55.37;;
39924;SDS011;25592;49.986;11.618;2024-01-11T07:36:06;130.20;;;55.20;;
39924;SDS011;25592;49.986;11.618;2024-01-11T07:38:52;130.97;;;54.23;;
39924;SDS011;25592;49.986;11.618;2024-01-11T07:41:38;133.33;;;57.03;;
39924;SDS011;25592;49.986;11.618;2024-01-11T07:44:23;136.40;;;58.63;;
39924;SDS011;25592;49.986;11.618;2024-01-11T07:47:09;131.40;;;54.37;;
39924;SDS011;25592;49.986;11.618;2024-01-11T07:49:54;130.73;;;53.80;;
39924;SDS011;25592;49.986;11.618;2024-01-11T07:52:40;133.50;;;56.80;;
39924;SDS011;25592;49.986;11.618;2024-01-11T07:55:26;130.93;;;54.37;;
39924;SDS011;25592;49.986;11.618;2024-01-11T07:58:12;132.23;;;55.57;;
39924;SDS011;25592;49.986;11.618;2024-01-11T08:00:57;133.03;;;55.23;;
39924;SDS011;25592;49.986;11.618;2024-01-11T08:03:43;131.90;;;54.27;;
39924;SDS011;25592;49.986;11.618;2024-01-11T08:06:32;133.17;;;54.70;;
39924;SDS011;25592;49.986;11.618;2024-01-11T08:09:17;133.83;;;55.40;;
39924;SDS011;25592;49.986;11.618;2024-01-11T08:12:03;133.40;;;54.80;;
39924;SDS011;25592;49.986;11.618;2024-01-11T08:14:48;132.13;;;53.60;;
39924;SDS011;25592;49.986;11.618;2024-01-11T08:17:34;133.93;;;56.07;;
39924;SDS011;25592;49.986;11.618;2024-01-11T08:20:22;133.30;;;54.80;;
39924;SDS011;25592;49.986;11.618;2024-01-11T08:23:08;133.03;;;54.97;;
39924;SDS011;25592;49.986;11.618;2024-01-11T08:25:53;132.60;;;53.77;;
39924;SDS011;25592;49.986;11.618;2024-01-11T08:28:39;134.17;;;55.60;;
39924;SDS011;25592;49.986;11.618;2024-01-11T08:31:24;135.63;;;58.17;;
39924;SDS011;25592;49.986;11.618;2024-01-11T08:34:10;133.37;;;55.53;;
39924;SDS011;25592;49.986;11.618;2024-01-11T08:36:56;132.07;;;54.07;;
39924;SDS011;25592;49.986;11.618;2024-01-11T08:39:41;132.37;;;54.40;;
39924;SDS011;25592;49.986;11.618;2024-01-11T08:42:27;132.70;;;54.57;;
39924;SDS011;25592;49.986;11.618;2024-01-11T08:45:13;132.83;;;54.30;;
39924;SDS011;25592;49.986;11.618;2024-01-11T08:48:02;132.90;;;55.33;;
39924;SDS011;25592;49.986;11.618;2024-01-11T08:50:48;132.23;;;54.67;;
39924;SDS011;25592;49.986;11.618;2024-01-11T08:53:33;131.47;;;53.10;;
39924;SDS011;25592;49.986;11.618;2024-01-11T08:56:19;134.53;;;55.90;;
39924;SDS011;25592;49.986;11.618;2024-01-11T08:59:04;132.30;;;55.03;;
39924;SDS011;25592;49.986;11.618;2024-01-11T09:01:50;132.00;;;55.57;;
39924;SDS011;25592;49.986;11.618;2024-01-11T09:04:50;132.97;;;56.07;;
39924;SDS011;25592;49.986;11.618;2024-01-11T09:07:35;130.63;;;54.70;;
39924;SDS011;25592;49.986;11.618;2024-01-11T09:10:21;130.13;;;53.83;;
39924;SDS011;25592;49.986;11.618;2024-01-11T09:13:07;130.60;;;54.07;;
39924;SDS011;25592;49.986;11.618;2024-01-11T09:15:55;129.93;;;53.30;;
39924;SDS011;25592;49.986;11.618;2024-01-11T09:18:40;130.80;;;54.93;;
39924;SDS011;25592;49.986;11.618;2024-01-11T09:21:29;132.13;;;58.50;;
39924;SDS011;25592;49.986;11.618;2024-01-11T09:24:14;130.03;;;54.93;;
39924;SDS011;25592;49.986;11.618;2024-01-11T09:27:00;129.77;;;53.93;;
39924;SDS011;25592;49.986;11.618;2024-01-11T09:29:45;131.17;;;55.67;;
39924;SDS011;25592;49.986;11.618;2024-01-11T09:32:31;131.43;;;55.43;;
39924;SDS011;25592;49.986;11.618;2024-01-11T09:35:17;130.07;;;53.93;;
39924;SDS011;25592;49.986;11.618;2024-01-11T09:38:02;130.77;;;54.87;;
39924;SDS011;25592;49.986;11.618;2024-01-11T09:41:07;133.57;;;55.97;;
39924;SDS011;25592;49.986;11.618;2024-01-11T09:43:57;129.83;;;54.17;;
39924;SDS011;25592;49.986;11.618;2024-01-11T09:46:48;123.90;;;52.33;;
39924;SDS011;25592;49.986;11.618;2024-01-11T09:49:34;129.00;;;54.80;;
39924;SDS011;25592;49.986;11.618;2024-01-11T09:52:22;130.37;;;55.70;;
39924;SDS011;25592;49.986;11.618;2024-01-11T09:55:10;131.37;;;57.07;;
39924;SDS011;25592;49.986;11.618;2024-01-11T09:57:56;127.73;;;53.87;;
39924;SDS011;25592;49.986;11.618;2024-01-11T10:00:44;129.93;;;56.83;;
39924;SDS011;25592;49.986;11.618;2024-01-11T10:03:30;127.73;;;54.80;;
39924;SDS011;25592;49.986;11.618;2024-01-11T10:06:16;127.77;;;54.57;;
39924;SDS011;25592;49.986;11.618;2024-01-11T10:09:02;128.97;;;57.10;;
39924;SDS011;25592;49.986;11.618;2024-01-11T10:11:48;123.10;;;55.00;;
39924;SDS011;25592;49.986;11.618;2024-01-11T10:14:35;123.23;;;54.60;;
39924;SDS011;25592;49.986;11.618;2024-01-11T10:17:21;125.20;;;56.43;;
39924;SDS011;25592;49.986;11.618;2024-01-11T10:20:10;126.87;;;56.07;;
39924;SDS011;25592;49.986;11.618;2024-01-11T10:22:59;128.50;;;56.40;;
39924;SDS011;25592;49.986;11.618;2024-01-11T10:25:44;126.83;;;55.10;;
39924;SDS011;25592;49.986;11.618;2024-01-11T10:28:29;128.77;;;57.67;;
39924;SDS011;25592;49.986;11.618;2024-01-11T10:31:15;130.03;;;59.10;;
39924;SDS011;25592;49.986;11.618;2024-01-11T10:34:00;127.97;;;55.80;;
39924;SDS011;25592;49.986;11.618;2024-01-11T10:36:46;128.77;;;56.90;;
39924;SDS011;25592;49.986;11.618;2024-01-11T10:39:31;128.87;;;56.63;;
39924;SDS011;25592;49.986;11.618;2024-01-11T10:42:20;128.73;;;56.23;;
39924;SDS011;25592;49.986;11.618;2024-01-11T10:45:16;129.80;;;56.60;;
39924;SDS011;25592;49.986;11.618;2024-01-11T10:50:54;130.10;;;56.87;;
39924;SDS011;25592;49.986;11.618;2024-01-11T10:53:44;122.00;;;56.03;;
39924;SDS011;25592;49.986;11.618;2024-01-11T10:56:31;130.23;;;58.57;;
39924;SDS011;25592;49.986;11.618;2024-01-11T10:59:18;128.10;;;57.07;;
39924;SDS011;25592;49.986;11.618;2024-01-11T11:02:05;127.80;;;56.77;;
39924;SDS011;25592;49.986;11.618;2024-01-11T11:04:53;127.73;;;56.77;;
39924;SDS011;25592;49.986;11.618;2024-01-11T11:07:41;130.40;;;58.67;;
39924;SDS011;25592;49.986;11.618;2024-01-11T11:10:27;141.33;;;61.07;;
39924;SDS011;25592;49.986;11.618;2024-01-11T11:13:15;129.87;;;58.70;;
39924;SDS011;25592;49.986;11.618;2024-01-11T11:16:02;130.17;;;59.27;;
39924;SDS011;25592;49.986;11.618;2024-01-11T11:18:52;131.43;;;58.17;;
39924;SDS011;25592;49.986;11.618;2024-01-11T11:21:42;132.23;;;59.33;;
39924;SDS011;25592;49.986;11.618;2024-01-11T11:24:29;135.87;;;60.90;;
39924;SDS011;25592;49.986;11.618;2024-01-11T11:27:15;136.27;;;59.93;;
39924;SDS011;25592;49.986;11.618;2024-01-11T11:30:01;133.30;;;59.33;;
39924;SDS011;25592;49.986;11.618;2024-01-11T11:32:49;133.93;;;58.10;;
39924;SDS011;25592;49.986;11.618;2024-01-11T11:35:34;142.67;;;68.67;;
39924;SDS011;25592;49.986;11.618;2024-01-11T11:38:20;136.83;;;58.97;;
39924;SDS011;25592;49.986;11.618;2024-01-11T11:41:07;137.57;;;60.93;;
39924;SDS011;25592;49.986;11.618;2024-01-11T11:43:52;137.93;;;60.77;;
39924;SDS011;25592;49.986;11.618;2024-01-11T11:46:38;138.13;;;61.20;;
39924;SDS011;25592;49.986;11.618;2024-01-11T11:49:52;137.97;;;60.67;;
39924;SDS011;25592;49.986;11.618;2024-01-11T11:52:38;144.13;;;64.33;;
39924;SDS011;25592;49.986;11.618;2024-01-11T11:55:24;141.27;;;61.77;;
39924;SDS011;25592;49.986;11.618;2024-01-11T11:58:12;141.43;;;61.00;;
39924;SDS011;25592;49.986;11.618;2024-01-11T12:00:59;140.77;;;60.87;;
39924;SDS011;25592;49.986;11.618;2024-01-11T12:03:45;140.23;;;61.60;;
39924;SDS011;25592;49.986;11.618;2024-01-11T12:06:35;144.00;;;64.13;;
39924;SDS011;25592;49.986;11.618;2024-01-11T12:09:20;141.50;;;59.57;;
39924;SDS011;25592;49.986;11.618;2024-01-11T12:12:08;139.87;;;57.10;;
39924;SDS011;25592;49.986;11.618;2024-01-11T12:15:00;140.70;;;60.35;;
39924;SDS011;25592;49.986;11.618;2024-01-11T12:17:46;151.03;;;65.57;;
39924;SDS011;25592;49.986;11.618;2024-01-11T12:20:32;143.37;;;61.43;;
39924;SDS011;25592;49.986;11.618;2024-01-11T12:23:18;152.53;;;65.40;;
39924;SDS011;25592;49.986;11.618;2024-01-11T12:26:05;145.13;;;60.27;;
39924;SDS011;25592;49.986;11.618;2024-01-11T12:28:52;143.97;;;61.57;;
39924;SDS011;25592;49.986;11.618;2024-01-11T12:31:38;146.87;;;60.03;;
39924;SDS011;25592;49.986;11.618;2024-01-11T12:34:24;147.03;;;60.60;;
39924;SDS011;25592;49.986;11.618;2024-01-11T12:37:11;149.37;;;62.80;;
39924;SDS011;25592;49.986;11.618;2024-01-11T12:39:57;150.53;;;60.17;;
39924;SDS011;25592;49.986;11.618;2024-01-11T12:42:43;147.00;;;59.43;;
39924;SDS011;25592;49.986;11.618;2024-01-11T12:45:29;148.10;;;60.73;;
39924;SDS011;25592;49.986;11.618;2024-01-11T12:48:16;155.97;;;60.93;;
39924;SDS011;25592;49.986;11.618;2024-01-11T12:51:04;148.50;;;59.60;;
39924;SDS011;25592;49.986;11.618;2024-01-11T12:54:04;149.13;;;59.93;;
39924;SDS011;25592;49.986;11.618;2024-01-11T12:56:54;150.90;;;59.33;;
39924;SDS011;25592;49.986;11.618;2024-01-11T12:59:40;146.73;;;60.50;;
39924;SDS011;25592;49.986;11.618;2024-01-11T13:02:26;134.47;;;59.07;;
39924;SDS011;25592;49.986;11.618;2024-01-11T13:05:12;136.47;;;59.97;;
39924;SDS011;25592;49.986;11.618;2024-01-11T13:07:57;138.07;;;60.83;;
39924;SDS011;25592;49.986;11.618;2024-01-11T13:10:43;136.63;;;59.97;;
39924;SDS011;25592;49.986;11.618;2024-01-11T13:13:28;140.57;;;59.17;;
39924;SDS011;25592;49.986;11.618;2024-01-11T13:16:15;137.30;;;59.43;;
39924;SDS011;25592;49.986;11.618;2024-01-11T13:19:01;139.93;;;60.07;;
39924;SDS011;25592;49.986;11.618;2024-01-11T13:21:57;135.53;;;58.97;;
39924;SDS011;25592;49.986;11.618;2024-01-11T13:24:42;137.60;;;60.37;;
39924;SDS011;25592;49.986;11.618;2024-01-11T13:27:28;136.37;;;59.63;;
39924;SDS011;25592;49.986;11.618;2024-01-11T13:30:13;137.20;;;60.73;;
39924;SDS011;25592;49.986;11.618;2024-01-11T13:32:59;136.40;;;59.80;;
39924;SDS011;25592;49.986;11.618;2024-01-11T13:35:45;135.30;;;58.50;;
39924;SDS011;25592;49.986;11.618;2024-01-11T13:38:31;136.37;;;60.57;;
39924;SDS011;25592;49.986;11.618;2024-01-11T13:41:16;136.53;;;59.13;;
39924;SDS011;25592;49.986;11.618;2024-01-11T13:44:02;136.13;;;60.40;;
39924;SDS011;25592;49.986;11.618;2024-01-11T13:46:50;136.57;;;60.30;;
39924;SDS011;25592;49.986;11.618;2024-01-11T13:49:35;136.67;;;61.87;;
39924;SDS011;25592;49.986;11.618;2024-01-11T13:52:21;137.97;;;62.17;;
39924;SDS011;25592;49.986;11.618;2024-01-11T13:55:07;136.47;;;58.93;;
39924;SDS011;25592;49.986;11.618;2024-01-11T13:57:55;140.63;;;64.30;;
39924;SDS011;25592;49.986;11.618;2024-01-11T14:00:40;137.47;;;60.27;;
39924;SDS011;25592;49.986;11.618;2024-01-11T14:03:26;137.30;;;59.60;;
39924;SDS011;25592;49.986;11.618;2024-01-11T14:06:12;138.13;;;60.50;;
39924;SDS011;25592;49.986;11.618;2024-01-11T14:08:57;139.80;;;64.80;;
39924;SDS011;25592;49.986;11.618;2024-01-11T14:11:43;137.23;;;60.40;;
39924;SDS011;25592;49.986;11.618;2024-01-11T14:14:29;135.50;;;59.97;;
39924;SDS011;25592;49.986;11.618;2024-01-11T14:17:15;137.17;;;59.37;;
39924;SDS011;25592;49.986;11.618;2024-01-11T14:20:01;139.30;;;65.23;;
39924;SDS011;25592;49.986;11.618;2024-01-11T14:22:49;135.50;;;59.70;;
39924;SDS011;25592;49.986;11.618;2024-01-11T14:25:34;138.10;;;60.33;;
39924;SDS011;25592;49.986;11.618;2024-01-11T14:28:20;136.63;;;60.33;;
39924;SDS011;25592;49.986;11.618;2024-01-11T14:31:07;136.00;;;61.37;;
39924;SDS011;25592;49.986;11.618;2024-01-11T14:33:52;135.43;;;60.73;;
39924;SDS011;25592;49.986;11.618;2024-01-11T14:36:38;134.87;;;60.17;;
39924;SDS011;25592;49.986;11.618;2024-01-11T14:39:24;135.90;;;61.20;;
39924;SDS011;25592;49.986;11.618;2024-01-11T14:42:11;132.37;;;57.83;;
39924;SDS011;25592;49.986;11.618;2024-01-11T14:44:57;134.50;;;58.83;;
39924;SDS011;25592;49.986;11.618;2024-01-11T14:47:42;135.47;;;60.23;;
39924;SDS011;25592;49.986;11.618;2024-01-11T14:50:28;135.40;;;59.70;;
39924;SDS011;25592;49.986;11.618;2024-01-11T14:53:13;136.50;;;59.77;;
39924;SDS011;25592;49.986;11.618;2024-01-11T14:55:58;138.17;;;59.53;;
39924;SDS011;25592;49.986;11.618;2024-01-11T14:58:44;137.60;;;60.23;;
39924;SDS011;25592;49.986;11.618;2024-01-11T15:01:29;136.80;;;59.93;;
39924;SDS011;25592;49.986;11.618;2024-01-11T15:04:15;139.17;;;61.93;;
39924;SDS011;25592;49.986;11.618;2024-01-11T15:07:01;134.60;;;57.83;;
39924;SDS011;25592;49.986;11.618;2024-01-11T15:09:46;134.27;;;58.20;;
39924;SDS011;25592;49.986;11.618;2024-01-11T15:12:32;134.30;;;60.63;;
39924;SDS011;25592;49.986;11.618;2024-01-11T15:15:18;134.70;;;59.97;;
39924;SDS011;25592;49.986;11.618;2024-01-11T15:18:04;137.80;;;63.93;;
39924;SDS011;25592;49.986;11.618;2024-01-11T15:20:50;136.40;;;63.07;;
39924;SDS011;25592;49.986;11.618;2024-01-11T15:23:36;132.70;;;59.87;;
39924;SDS011;25592;49.986;11.618;2024-01-11T15:26:21;132.80;;;59.20;;
39924;SDS011;25592;49.986;11.618;2024-01-11T15:29:07;131.50;;;57.13;;
39924;SDS011;25592;49.986;11.618;2024-01-11T15:31:52;133.07;;;57.80;;
39924;SDS011;25592;49.986;11.618;2024-01-11T15:34:38;135.20;;;66.27;;
39924;SDS011;25592;49.986;11.618;2024-01-11T15:37:23;131.37;;;57.27;;
39924;SDS011;25592;49.986;11.618;2024-01-11T15:40:10;131.17;;;57.00;;
39924;SDS011;25592;49.986;11.618;2024-01-11T15:42:56;130.20;;;56.03;;
39924;SDS011;25592;49.986;11.618;2024-01-11T15:45:42;130.43;;;57.00;;
39924;SDS011;25592;49.986;11.618;2024-01-11T15:48:28;130.47;;;57.87;;